Portada
METAR-TAF:

METAR-TAF

Aeroports :

Ranchi, Índia

latitud: 23-18-51N, longitud: 85-19-18E, altitud: 646 m

Observació

L'informe es va fer fa 24 minuts, a les 03:30 UTC
Vent 5 kt del Oest
Temperatura 34°C
Humitat 41%
Pressió 1004 hPa
Visibilitat: 4000 m
Escasses núvols a una alçada de 10000 ft
calitja

METAR: VERC 180330Z 27005KT 4000 HZ FEW100 34/19 Q1004 BECMG 5000 HZ

Hora: 09:24 (03:54 UTC)


TAF: manca

Observacions i pronòstics meteorològics de més de 4000 aeroports (METAR i TAF).

Les estacions disponibles són els punts grocs i vermells al mapa.

Posi el ratolí al punt desitjat per veure el nom de l'estació.

Feu clic per veure les observacions i els pronòstics meteorològics.

Per canviar el mapa: feu clic els botons verds amb una creu de color negre per apropar; al botó verd amb un guió per allunyar la imatge; o en les fletxes verdes per a mapes adjacents.


METAR-TAF: